Time;durP1;ratioP1;P1;durP2;ratioP2;P2;SDS_P1;SDS_P2;PMS_P1;PMS_P2;Temp;Humidity;BMP_temperature;BMP_pressure;BME280_temperature;BME280_humidity;BME280_pressure;Samples;Min_cycle;Max_cycle;Signal;HPM_P1;HPM_P2
2022/09/04 00:01:50;;;;;;;0.17;0.17;;;;;;;9.35;67.99;100323.88;6239982;22;20062;-70
2022/09/04 00:04:29;;;;;;;0.10;0.10;;;;;;;9.30;68.57;100329.28;6266860;22;20050;-69
2022/09/04 00:07:07;;;;;;;0.10;0.10;;;;;;;9.24;68.87;100322.09;6268593;22;20026;-70
2022/09/04 00:09:44;;;;;;;0.10;0.10;;;;;;;9.22;69.09;100326.97;6274736;22;20058;-70
2022/09/04 00:12:11;;;;;;;;;;;;;;;9.18;69.22;100328.56;6213980;22;20022;-70
2022/09/04 00:14:45;;;;;;;0.37;0.10;;;;;;;9.12;69.36;100326.84;6265362;22;19918;-69
2022/09/04 00:17:19;;;;;;;0.10;0.10;;;;;;;9.09;69.59;100330.91;6268443;22;20026;-70
2022/09/04 00:19:52;;;;;;;0.10;0.10;;;;;;;9.05;69.80;100329.75;6247326;22;20307;-69
2022/09/04 00:22:32;;;;;;;0.30;0.17;;;;;;;9.03;70.24;100324.56;6268062;22;20022;-69
2022/09/04 00:25:07;;;;;;;0.10;0.10;;;;;;;9.04;69.98;100322.66;6225672;22;20031;-70
2022/09/04 00:27:43;;;;;;;0.10;0.10;;;;;;;9.06;70.15;100326.78;6238783;22;20529;-71
2022/09/04 00:30:19;;;;;;;0.10;0.10;;;;;;;9.07;70.00;100325.69;6236802;22;20027;-70
2022/09/04 00:32:51;;;;;;;0.43;0.10;;;;;;;9.02;70.03;100331.09;6264508;22;20023;-77
2022/09/04 00:35:21;;;;;;;0.13;0.10;;;;;;;9.00;70.09;100327.81;6277307;22;20572;-76
2022/09/04 00:37:54;;;;;;;0.10;0.10;;;;;;;9.04;70.00;100325.38;6275749;22;20019;-77
2022/09/04 00:40:27;;;;;;;0.10;0.10;;;;;;;9.00;70.32;100330.53;6270935;22;20024;-77
2022/09/04 00:43:35;;;;;;;0.25;0.10;;;;;;;9.00;70.44;100332.41;6249672;22;20027;-77
2022/09/04 00:46:21;;;;;;;0.50;0.13;;;;;;;8.97;70.27;100332.91;6231343;22;20023;-77
2022/09/04 00:49:22;;;;;;;0.40;0.10;;;;;;;8.93;70.50;100324.41;6264749;22;20075;-76
2022/09/04 00:51:57;;;;;;;0.10;0.10;;;;;;;8.91;70.23;100327.41;6198297;22;20106;-77
2022/09/04 00:54:51;;;;;;;0.13;0.10;;;;;;;8.89;70.79;100324.06;6271626;22;20419;-77
2022/09/04 00:57:57;;;;;;;0.28;0.10;;;;;;;8.86;70.71;100323.78;6265395;22;20380;-77
2022/09/04 01:00:25;;;;;;;0.10;0.10;;;;;;;8.89;70.87;100326.81;6269687;22;20015;-77
2022/09/04 01:03:25;;;;;;;0.10;0.10;;;;;;;8.83;71.00;100330.53;6188222;22;20031;-77
2022/09/04 01:06:15;;;;;;;0.10;0.10;;;;;;;8.73;71.01;100316.75;6237096;22;20356;-77
2022/09/04 01:09:21;;;;;;;0.10;0.10;;;;;;;8.72;71.52;100320.56;6277621;22;20030;-77
2022/09/04 01:12:00;;;;;;;0.00;0.00;;;;;;;8.72;71.46;100329.56;6264521;22;20023;-76
2022/09/04 01:14:33;;;;;;;0.08;0.08;;;;;;;8.71;71.60;100321.63;6274747;22;20027;-77
2022/09/04 01:17:11;;;;;;;0.10;0.10;;;;;;;8.67;72.24;100337.69;6263303;22;20564;-70
2022/09/04 01:19:51;;;;;;;0.10;0.10;;;;;;;8.65;72.18;100326.19;6238446;22;20024;-69
2022/09/04 01:22:32;;;;;;;0.00;0.00;;;;;;;8.63;72.17;100328.31;6237677;22;20089;-71
2022/09/04 01:25:04;;;;;;;0.10;0.10;;;;;;;8.56;72.57;100333.13;6237718;22;20367;-71
2022/09/04 01:27:44;;;;;;;0.10;0.10;;;;;;;8.51;73.02;100334.72;6246517;22;20020;-70
2022/09/04 01:30:13;;;;;;;0.03;0.03;;;;;;;8.50;73.08;100326.78;6267540;22;20016;-70
2022/09/04 01:32:52;;;;;;;0.10;0.10;;;;;;;8.45;73.27;100323.94;6209742;22;20028;-70
2022/09/04 01:35:29;;;;;;;0.10;0.10;;;;;;;8.42;73.64;100329.88;6275767;22;20576;-70
2022/09/04 01:38:05;;;;;;;0.10;0.10;;;;;;;8.37;74.09;100327.91;6275370;22;20073;-70
2022/09/04 01:40:41;;;;;;;0.10;0.10;;;;;;;8.31;74.32;100327.00;6279901;22;20016;-70
2022/09/04 01:43:10;;;;;;;0.10;0.10;;;;;;;8.30;74.57;100325.34;6266677;22;20047;-70
2022/09/04 01:46:04;;;;;;;0.10;0.10;;;;;;;8.26;74.84;100335.06;6274198;22;20024;-70
2022/09/04 01:48:37;;;;;;;0.10;0.10;;;;;;;8.18;75.01;100322.66;6275862;22;20030;-70
2022/09/04 01:51:11;;;;;;;0.00;0.00;;;;;;;8.06;75.26;100317.28;6278947;22;20138;-70
2022/09/04 01:53:44;;;;;;;0.10;0.10;;;;;;;8.09;75.97;100324.97;6275216;22;20028;-70
2022/09/04 01:56:18;;;;;;;0.10;0.10;;;;;;;8.05;76.19;100321.09;6266599;22;20019;-70
2022/09/04 01:58:53;;;;;;;0.10;0.10;;;;;;;8.05;76.43;100321.09;6263941;22;20031;-70
2022/09/04 02:01:28;;;;;;;0.05;0.05;;;;;;;8.05;76.71;100320.28;6264541;22;20073;-70
2022/09/04 02:04:06;;;;;;;0.10;0.10;;;;;;;8.08;76.68;100308.91;6273340;22;20019;-70
2022/09/04 02:06:49;;;;;;;0.38;0.10;;;;;;;8.09;76.83;100319.53;6265918;22;20552;-70
2022/09/04 02:09:33;;;;;;;0.10;0.10;;;;;;;8.08;76.71;100309.69;6268205;22;20058;-70
2022/09/04 02:12:09;;;;;;;0.10;0.10;;;;;;;8.12;76.92;100317.38;6214828;22;20030;-70
2022/09/04 02:14:46;;;;;;;0.17;0.10;;;;;;;8.15;76.61;100314.19;6278181;22;20122;-70
2022/09/04 02:17:19;;;;;;;0.10;0.10;;;;;;;8.09;76.55;100316.78;6273382;22;20026;-70
2022/09/04 02:20:07;;;;;;;0.10;0.10;;;;;;;8.11;76.63;100315.72;6274520;22;20110;-70
2022/09/04 02:22:43;;;;;;;0.10;0.10;;;;;;;8.05;76.40;100307.47;6249989;22;20073;-70
2022/09/04 02:25:20;;;;;;;0.17;0.17;;;;;;;7.97;76.65;100301.59;6279056;22;20019;-69
2022/09/04 02:27:54;;;;;;;0.10;0.10;;;;;;;7.97;76.59;100313.34;6236925;22;20020;-71
2022/09/04 02:30:22;;;;;;;0.10;0.10;;;;;;;8.01;76.76;100311.75;6240779;22;20486;-70
2022/09/04 02:32:56;;;;;;;0.13;0.10;;;;;;;8.03;76.54;100315.06;6241171;22;20069;-68
2022/09/04 02:35:33;;;;;;;0.52;0.10;;;;;;;7.97;76.85;100310.63;6278923;22;20023;-77
2022/09/04 02:38:10;;;;;;;0.20;0.10;;;;;;;7.93;77.08;100314.88;6250125;22;20019;-76
2022/09/04 02:40:48;;;;;;;0.65;0.20;;;;;;;7.91;76.97;100320.59;6281602;22;20070;-70
2022/09/04 02:43:34;;;;;;;0.10;0.10;;;;;;;7.88;77.24;100321.06;6268302;22;20028;-71
2022/09/04 02:46:08;;;;;;;0.10;0.10;;;;;;;7.85;77.26;100315.28;6242427;22;20077;-69
2022/09/04 02:48:46;;;;;;;0.10;0.10;;;;;;;7.82;77.56;100329.41;6238441;22;20023;-69
2022/09/04 02:51:22;;;;;;;0.10;0.10;;;;;;;7.88;77.58;100321.06;6242466;22;20085;-69
2022/09/04 02:53:59;;;;;;;0.10;0.10;;;;;;;7.88;77.33;100318.34;6216409;22;20478;-69
2022/09/04 02:56:37;;;;;;;0.10;0.10;;;;;;;7.90;77.30;100321.66;6280659;22;20042;-70
2022/09/04 02:59:23;;;;;;;0.10;0.10;;;;;;;7.91;77.06;100322.47;6241639;22;20042;-70
2022/09/04 03:01:58;;;;;;;0.10;0.10;;;;;;;7.97;76.88;100335.13;6254598;22;20039;-70
2022/09/04 03:04:31;;;;;;;0.20;0.20;;;;;;;8.00;76.65;100333.78;6270746;22;20024;-70
2022/09/04 03:07:07;;;;;;;0.10;0.10;;;;;;;7.99;76.68;100332.97;6270547;22;20024;-70
2022/09/04 03:09:40;;;;;;;0.30;0.20;;;;;;;8.04;76.74;100334.94;6215981;22;20533;-71
2022/09/04 03:12:25;;;;;;;0.20;0.20;;;;;;;8.06;76.41;100336.34;6251536;22;20027;-71
2022/09/04 03:14:59;;;;;;;0.20;0.20;;;;;;;8.10;76.41;100331.25;6251054;22;20782;-70
2022/09/04 03:17:33;;;;;;;0.20;0.20;;;;;;;8.15;76.19;100339.50;6242283;22;20088;-70
2022/09/04 03:20:05;;;;;;;0.10;0.10;;;;;;;8.20;76.19;100328.72;6269559;22;20105;-70
2022/09/04 03:22:38;;;;;;;0.13;0.13;;;;;;;8.25;76.06;100336.13;6240258;22;20022;-70
2022/09/04 03:25:24;;;;;;;0.10;0.10;;;;;;;8.27;75.93;100338.63;6268355;22;20038;-71
2022/09/04 03:27:50;;;;;;;1.88;0.30;;;;;;;8.31;75.92;100335.16;6277491;22;20027;-70
2022/09/04 03:30:17;;;;;;;0.17;0.17;;;;;;;8.34;75.72;100331.09;6249459;22;20020;-70
2022/09/04 03:32:53;;;;;;;0.25;0.20;;;;;;;8.37;75.66;100336.09;6238779;22;20054;-70
2022/09/04 03:35:26;;;;;;;0.35;0.30;;;;;;;8.41;75.44;100330.94;6278028;22;20023;-70
2022/09/04 03:38:04;;;;;;;0.17;0.17;;;;;;;8.48;75.41;100323.44;6271686;22;20035;-70
2022/09/04 03:40:36;;;;;;;0.50;0.30;;;;;;;8.57;74.95;100329.34;6238305;22;20043;-69
2022/09/04 03:43:21;;;;;;;0.30;0.20;;;;;;;8.62;74.81;100323.94;6188643;22;20026;-71
2022/09/04 03:45:56;;;;;;;0.10;0.10;;;;;;;8.64;74.80;100325.38;6275115;22;20031;-71
2022/09/04 03:48:45;;;;;;;0.17;0.17;;;;;;;8.70;74.56;100322.72;6278806;22;20042;-70
2022/09/04 03:51:19;;;;;;;0.10;0.10;;;;;;;8.74;74.37;100329.31;6280262;22;20046;-71
2022/09/04 03:53:58;;;;;;;0.20;0.20;;;;;;;8.79;74.26;100329.41;6253644;22;20024;-77
2022/09/04 03:56:42;;;;;;;0.47;0.30;;;;;;;8.84;74.10;100332.19;6270698;22;20023;-77
2022/09/04 03:59:20;;;;;;;0.25;0.20;;;;;;;8.89;73.84;100331.44;6271319;22;20016;-78
2022/09/04 04:01:55;;;;;;;0.20;0.20;;;;;;;8.96;73.54;100323.09;6251891;22;20027;-77
2022/09/04 04:04:44;;;;;;;0.22;0.20;;;;;;;9.02;73.25;100331.09;6241280;22;20110;-77
2022/09/04 04:07:27;;;;;;;0.10;0.10;;;;;;;9.11;72.69;100322.47;6278022;22;20020;-77
2022/09/04 04:10:02;;;;;;;0.20;0.20;;;;;;;9.15;72.04;100316.25;6239771;22;20427;-77
2022/09/04 04:12:42;;;;;;;0.13;0.10;;;;;;;9.24;71.53;100327.56;6266815;22;20019;-77
2022/09/04 04:15:31;;;;;;;0.13;0.13;;;;;;;9.28;71.46;100320.50;6278143;22;20024;-77
2022/09/04 04:18:12;;;;;;;0.80;0.30;;;;;;;9.32;70.98;100316.22;6274672;22;20030;-77
2022/09/04 04:20:49;;;;;;;0.20;0.20;;;;;;;9.42;70.57;100320.97;6281406;22;20031;-77
2022/09/04 04:23:48;;;;;;;0.52;0.20;;;;;;;9.49;69.84;100313.41;6238938;22;20016;-77
2022/09/04 04:26:20;;;;;;;0.10;0.10;;;;;;;9.56;68.43;100321.38;6256009;22;20028;-77
2022/09/04 04:29:07;;;;;;;0.10;0.10;;;;;;;9.61;67.04;100317.91;6276462;22;20028;-76
2022/09/04 04:32:14;;;;;;;0.10;0.10;;;;;;;9.65;66.59;100319.03;6278130;22;20294;-78
2022/09/04 04:34:52;;;;;;;0.35;0.20;;;;;;;9.77;66.25;100313.44;6263563;22;20044;-76
2022/09/04 04:37:30;;;;;;;0.10;0.10;;;;;;;9.84;65.75;100313.25;6264796;22;20422;-77
2022/09/04 04:40:01;;;;;;;;;;;;;;;9.91;65.64;100319.31;6238275;22;20023;-77
2022/09/04 04:42:34;;;;;;;0.20;0.20;;;;;;;9.92;65.60;100313.59;6187122;22;19926;-78
2022/09/04 04:48:50;;;;;;;0.20;0.20;;;;;;;10.07;65.48;100320.31;6264170;22;20490;-77
2022/09/04 04:51:48;;;;;;;0.20;0.20;;;;;;;10.10;65.14;100317.03;6266668;22;20493;-77
2022/09/04 04:54:32;;;;;;;0.20;0.20;;;;;;;10.15;64.63;100328.03;6213189;22;20448;-77
2022/09/04 04:57:09;;;;;;;0.10;0.10;;;;;;;10.10;64.18;100311.59;6235662;22;20020;-77
2022/09/04 04:59:43;;;;;;;0.20;0.20;;;;;;;10.23;63.87;100326.72;6273202;22;20031;-78
2022/09/04 05:02:20;;;;;;;0.15;0.15;;;;;;;10.30;64.02;100327.34;6214200;22;20031;-78
2022/09/04 05:04:53;;;;;;;0.10;0.10;;;;;;;10.36;63.81;100323.56;6213093;22;20106;-78
2022/09/04 05:07:34;;;;;;;0.20;0.20;;;;;;;10.46;63.50;100330.25;6277246;22;20093;-79
2022/09/04 05:10:16;;;;;;;0.60;0.35;;;;;;;10.51;63.07;100324.81;6261755;22;20024;-78
2022/09/04 05:12:54;;;;;;;0.10;0.10;;;;;;;10.55;61.69;100331.38;6237677;22;20107;-78
2022/09/04 05:15:31;;;;;;;0.20;0.20;;;;;;;10.57;60.53;100321.00;6262566;22;20046;-78
2022/09/04 05:18:04;;;;;;;0.47;0.20;;;;;;;10.60;59.55;100320.47;6247686;22;20019;-77
2022/09/04 05:20:40;;;;;;;0.20;0.20;;;;;;;10.62;58.63;100315.59;6275643;22;20110;-77
2022/09/04 05:23:16;;;;;;;0.20;0.20;;;;;;;10.62;57.16;100325.69;6275238;22;20020;-77
2022/09/04 05:25:51;;;;;;;0.20;0.20;;;;;;;10.63;56.68;100314.50;6264144;22;20402;-77
2022/09/04 05:28:28;;;;;;;0.20;0.20;;;;;;;10.66;56.18;100317.81;6274500;22;20027;-77
2022/09/04 05:31:04;;;;;;;0.10;0.10;;;;;;;10.72;55.68;100325.78;6270428;22;20023;-77
2022/09/04 05:33:36;;;;;;;0.10;0.10;;;;;;;10.77;54.82;100328.53;6277793;22;20019;-79
2022/09/04 05:36:12;;;;;;;0.20;0.20;;;;;;;10.82;54.78;100332.38;6280994;22;20503;-77
2022/09/04 05:38:48;;;;;;;0.20;0.20;;;;;;;10.86;54.54;100333.53;6250097;22;20016;-77
2022/09/04 05:41:27;;;;;;;0.10;0.10;;;;;;;10.86;54.59;100333.53;6278233;22;20032;-77
2022/09/04 05:44:08;;;;;;;0.43;0.30;;;;;;;10.98;54.34;100334.13;6237890;22;20029;-78
2022/09/04 05:46:46;;;;;;;0.20;0.20;;;;;;;11.23;53.26;100337.28;6273390;22;20019;-77
2022/09/04 05:49:23;;;;;;;0.40;0.20;;;;;;;11.49;52.38;100330.03;6236514;22;20323;-78
2022/09/04 05:52:15;;;;;;;0.20;0.20;;;;;;;11.68;51.54;100327.59;6276790;22;20023;-77
2022/09/04 05:55:16;;;;;;;0.38;0.30;;;;;;;11.90;50.79;100329.31;6275722;22;20023;-77
2022/09/04 05:57:59;;;;;;;0.50;0.30;;;;;;;11.98;50.17;100311.53;6235348;22;20023;-78
2022/09/04 06:00:31;;;;;;;0.20;0.20;;;;;;;12.17;49.77;100333.75;6250448;22;20015;-78
2022/09/04 06:03:23;;;;;;;0.28;0.28;;;;;;;12.37;49.01;100337.63;6274306;22;20020;-77
2022/09/04 06:06:05;;;;;;;0.20;0.20;;;;;;;12.45;48.76;100337.06;6262176;22;20020;-77
2022/09/04 06:08:53;;;;;;;0.45;0.30;;;;;;;12.51;48.57;100327.75;6232049;22;20471;-78
2022/09/04 06:11:38;;;;;;;0.20;0.20;;;;;;;12.65;48.38;100343.66;6209939;22;20027;-78
2022/09/04 06:14:22;;;;;;;0.57;0.30;;;;;;;12.76;47.74;100337.03;6183996;22;20047;-78
2022/09/04 06:17:05;;;;;;;0.20;0.20;;;;;;;12.84;47.52;100341.16;6271880;22;20020;-77
2022/09/04 06:19:47;;;;;;;0.28;0.28;;;;;;;12.96;47.36;100344.44;6274161;22;20031;-78
2022/09/04 06:22:44;;;;;;;0.20;0.20;;;;;;;12.95;47.48;100344.69;6222587;22;20382;-78
2022/09/04 06:25:35;;;;;;;0.30;0.30;;;;;;;12.87;47.69;100343.34;6261318;22;20030;-78
2022/09/04 06:28:16;;;;;;;0.20;0.20;;;;;;;13.08;46.87;100340.56;6267620;22;20062;-79
2022/09/04 06:30:52;;;;;;;0.22;0.22;;;;;;;13.13;46.29;100344.13;6264554;22;20028;-78
2022/09/04 06:33:55;;;;;;;0.30;0.30;;;;;;;13.14;45.94;100336.69;6237906;22;20027;-78
2022/09/04 06:36:48;;;;;;;0.20;0.20;;;;;;;13.32;45.92;100347.06;6244281;22;20098;-78
2022/09/04 06:39:39;;;;;;;0.30;0.30;;;;;;;13.53;45.08;100340.72;6259074;22;20030;-78
2022/09/04 06:42:21;;;;;;;0.70;0.30;;;;;;;13.56;45.01;100345.63;6236006;22;20027;-78
2022/09/04 06:45:10;;;;;;;0.20;0.20;;;;;;;13.55;45.01;100352.22;6272263;22;20134;-78
2022/09/04 06:47:50;;;;;;;0.28;0.28;;;;;;;13.38;44.77;100358.88;6233206;22;20182;-77
2022/09/04 06:50:23;;;;;;;0.30;0.30;;;;;;;13.18;45.94;100355.09;6212461;22;20466;-77
2022/09/04 06:53:02;;;;;;;0.30;0.30;;;;;;;13.26;45.62;100352.84;6271894;22;20030;-76
2022/09/04 06:55:36;;;;;;;0.30;0.30;;;;;;;13.52;45.35;100350.06;6270917;22;20020;-76
2022/09/04 06:58:25;;;;;;;0.30;0.30;;;;;;;13.92;44.60;100347.38;6202959;22;20540;-77
2022/09/04 07:00:57;;;;;;;0.30;0.30;;;;;;;14.22;43.62;100351.88;6228988;22;20141;-77
2022/09/04 07:03:37;;;;;;;0.30;0.30;;;;;;;14.38;43.16;100352.56;6202730;22;20098;-77
2022/09/04 07:06:11;;;;;;;0.30;0.30;;;;;;;14.60;42.08;100341.09;6228171;22;20026;-77
2022/09/04 07:08:50;;;;;;;0.40;0.40;;;;;;;14.60;42.41;100346.63;6247980;22;20448;-77
2022/09/04 07:11:27;;;;;;;0.30;0.30;;;;;;;14.53;42.11;100348.88;6251524;22;20051;-77
2022/09/04 07:14:19;;;;;;;0.25;0.25;;;;;;;14.71;41.63;100343.78;6266190;22;20381;-74
2022/09/04 07:16:57;;;;;;;0.30;0.30;;;;;;;14.92;40.67;100344.44;6231345;22;20676;-77
2022/09/04 07:19:52;;;;;;;0.30;0.30;;;;;;;14.94;39.87;100344.13;6266848;22;20042;-77
2022/09/04 07:22:42;;;;;;;0.30;0.30;;;;;;;14.91;40.52;100340.03;6273677;22;20274;-77
2022/09/04 07:25:16;;;;;;;0.47;0.30;;;;;;;15.16;40.50;100336.19;6264608;22;20020;-70
2022/09/04 07:28:00;;;;;;;0.30;0.30;;;;;;;15.46;39.95;100325.09;6265244;22;20466;-77
2022/09/04 07:30:30;;;;;;;0.20;0.20;;;;;;;15.14;40.22;100326.56;6275422;22;20366;-70
2022/09/04 07:33:01;;;;;;;0.30;0.30;;;;;;;14.99;40.45;100333.88;6264453;22;20559;-71
2022/09/04 07:35:35;;;;;;;0.20;0.20;;;;;;;15.30;40.06;100319.78;6214923;22;20024;-77
2022/09/04 07:38:13;;;;;;;0.30;0.30;;;;;;;15.39;39.99;100322.69;6263904;22;20054;-76
2022/09/04 07:40:45;;;;;;;0.57;0.50;;;;;;;15.43;40.05;100314.66;6271113;22;20019;-77
2022/09/04 07:43:20;;;;;;;0.98;0.60;;;;;;;15.70;40.27;100327.81;6249512;22;20023;-71
2022/09/04 07:45:54;;;;;;;0.60;0.40;;;;;;;15.91;39.72;100321.22;6248848;22;20019;-71
2022/09/04 07:48:29;;;;;;;0.40;0.40;;;;;;;15.39;40.21;100324.66;6216842;22;20024;-70
2022/09/04 07:51:03;;;;;;;0.35;0.35;;;;;;;15.55;39.53;100326.09;6268813;22;20102;-77
2022/09/04 07:53:54;;;;;;;0.40;0.40;;;;;;;15.67;39.02;100317.38;6216261;22;20024;-76
2022/09/04 07:56:29;;;;;;;0.35;0.35;;;;;;;15.92;38.52;100311.81;6215327;22;20106;-77
2022/09/04 07:59:12;;;;;;;0.45;0.40;;;;;;;16.69;37.40;100312.50;6235313;22;20023;-70
2022/09/04 08:01:55;;;;;;;0.30;0.30;;;;;;;16.50;37.06;100305.09;6238071;22;20047;-70
2022/09/04 08:04:51;;;;;;;0.68;0.60;;;;;;;16.78;36.35;100307.94;6252060;22;20028;-70
2022/09/04 08:07:26;;;;;;;0.50;0.50;;;;;;;17.71;33.85;100302.47;6253473;22;20026;-70
2022/09/04 08:10:13;;;;;;;0.50;0.50;;;;;;;17.90;33.70;100307.06;6266104;22;20245;-71
2022/09/04 08:12:55;;;;;;;0.82;0.50;;;;;;;18.24;33.44;100309.31;6238894;22;20471;-71
2022/09/04 08:15:33;;;;;;;0.50;0.50;;;;;;;18.05;32.71;100303.97;6264460;22;20020;-70
2022/09/04 08:18:20;;;;;;;0.65;0.50;;;;;;;17.86;32.91;100302.13;6246541;22;20102;-70
2022/09/04 08:20:54;;;;;;;0.63;0.60;;;;;;;17.93;33.17;100292.59;6210137;22;20463;-70
2022/09/04 08:23:58;;;;;;;0.30;0.30;;;;;;;17.74;32.85;100293.59;6274844;22;20023;-70
2022/09/04 08:26:39;;;;;;;0.85;0.50;;;;;;;16.53;35.35;100295.41;6235659;22;20077;-70
2022/09/04 08:29:23;;;;;;;0.60;0.60;;;;;;;17.27;34.53;100300.13;6271199;22;20012;-71
2022/09/04 08:32:02;;;;;;;0.60;0.60;;;;;;;18.92;31.43;100288.22;6238017;22;20040;-71
2022/09/04 08:35:02;;;;;;;0.70;0.70;;;;;;;19.93;29.96;100273.63;6263170;22;20027;-71
2022/09/04 08:37:38;;;;;;;0.68;0.68;;;;;;;20.98;28.28;100274.53;6248260;22;20047;-70
2022/09/04 08:40:32;;;;;;;0.60;0.60;;;;;;;21.89;27.39;100281.69;6279351;22;20025;-71
2022/09/04 08:43:30;;;;;;;0.75;0.73;;;;;;;22.99;25.65;100278.75;6237770;22;20024;-71
2022/09/04 08:46:28;;;;;;;0.82;0.70;;;;;;;23.51;24.83;100276.41;6202337;22;20020;-71
2022/09/04 08:49:44;;;;;;;0.65;0.40;;;;;;;22.60;25.30;100273.50;6253149;22;20051;-72
2022/09/04 08:52:49;;;;;;;0.70;0.70;;;;;;;21.11;27.83;100270.72;6228939;22;20077;-79
2022/09/04 08:55:45;;;;;;;1.05;0.70;;;;;;;21.00;27.72;100265.88;6262253;22;20107;-71
2022/09/04 08:58:53;;;;;;;0.60;0.60;;;;;;;20.99;27.51;100251.16;6259189;22;20023;-71
2022/09/04 09:01:55;;;;;;;1.95;0.85;;;;;;;20.85;28.41;100267.25;6264140;22;20431;-71
2022/09/04 09:05:00;;;;;;;0.70;0.70;;;;;;;21.62;26.76;100261.56;6275102;22;20099;-80
2022/09/04 09:07:52;;;;;;;0.70;0.70;;;;;;;22.58;25.91;100266.63;6261329;22;20020;-72
2022/09/04 09:10:53;;;;;;;0.70;0.70;;;;;;;23.16;24.55;100251.78;6268170;22;20019;-71
2022/09/04 09:14:06;;;;;;;0.77;0.77;;;;;;;23.94;23.53;100249.78;6263933;22;20027;-71
2022/09/04 09:16:43;;;;;;;0.40;0.40;;;;;;;23.64;23.74;100249.28;6274051;22;20077;-72
2022/09/04 09:19:18;;;;;;;0.55;0.50;;;;;;;22.14;25.62;100250.34;6217294;23;20027;-79
2022/09/04 09:21:49;;;;;;;0.30;0.30;;;;;;;21.71;25.92;100250.38;6244000;22;20047;-79
2022/09/04 09:24:52;;;;;;;0.90;0.90;;;;;;;21.90;26.25;100251.88;6241433;22;20016;-79
2022/09/04 09:28:00;;;;;;;0.77;0.70;;;;;;;23.27;24.52;100255.78;6204888;23;20371;-79
2022/09/04 09:30:38;;;;;;;0.80;0.80;;;;;;;23.27;24.29;100257.75;6233663;22;20106;-72
2022/09/04 09:36:34;;;;;;;0.30;0.30;;;;;;;20.49;26.86;100242.34;5139133;27;20421;-71
2022/09/04 09:39:37;;;;;;;0.65;0.38;;;;;;;19.06;27.80;100252.94;5141515;27;20095;-72
2022/09/04 09:42:39;;;;;;;0.90;0.90;;;;;;;19.29;27.92;100255.56;5143155;27;20046;-72
2022/09/04 09:45:34;;;;;;;1.02;1.00;;;;;;;20.84;26.12;100249.78;5093164;27;20152;-71
2022/09/04 09:48:40;;;;;;;1.17;1.10;;;;;;;22.05;24.65;100254.03;5133961;27;20057;-72
2022/09/04 09:51:40;;;;;;;1.30;1.20;;;;;;;22.07;25.62;100246.13;5094488;27;20445;-72
2022/09/04 09:54:48;;;;;;;1.10;1.00;;;;;;;22.90;24.28;100241.81;5136746;27;20099;-71
2022/09/04 09:58:07;;;;;;;1.15;1.10;;;;;;;22.85;24.14;100245.63;5141068;27;20053;-71
2022/09/04 10:00:45;;;;;;;1.13;1.02;;;;;;;23.01;24.57;100258.88;5142017;27;20045;-71
2022/09/04 10:03:43;;;;;;;1.10;1.10;;;;;;;22.42;25.09;100250.53;5122608;27;20523;-72
2022/09/04 10:06:35;;;;;;;1.10;1.10;;;;;;;22.62;24.79;100248.03;5142846;27;20043;-70
2022/09/04 10:09:44;;;;;;;1.20;1.10;;;;;;;23.98;23.59;100241.50;4532660;27;10000779;-72
2022/09/04 10:12:50;;;;;;;1.30;1.20;;;;;;;24.55;22.18;100240.66;5138575;27;20255;-72
2022/09/04 10:15:48;;;;;;;1.05;1.05;;;;;;;25.02;21.98;100242.66;5134785;27;20046;-72
2022/09/04 10:19:02;;;;;;;0.73;0.73;;;;;;;23.37;23.60;100243.31;5138576;27;20513;-71
2022/09/04 10:22:07;;;;;;;0.45;0.45;;;;;;;21.30;25.64;100240.84;5140241;27;20471;-71
2022/09/04 10:25:08;;;;;;;0.30;0.30;;;;;;;19.41;27.73;100243.84;5140446;27;20046;-71
2022/09/04 10:28:01;;;;;;;0.40;0.40;;;;;;;18.31;29.32;100231.38;5135753;27;20521;-71
2022/09/04 10:30:39;;;;;;;0.30;0.30;;;;;;;17.48;30.39;100243.56;5139373;27;20138;-71
2022/09/04 10:33:25;;;;;;;0.30;0.30;;;;;;;16.57;31.36;100244.00;5137636;27;20134;-71
2022/09/04 10:36:12;;;;;;;0.20;0.20;;;;;;;15.94;31.72;100229.63;5136102;27;20078;-71
2022/09/04 10:41:47;;;;;;;1.60;1.30;;;;;;;18.47;29.03;100222.66;5136409;27;20638;-71
2022/09/04 10:44:34;;;;;;;1.73;0.88;;;;;;;20.57;25.85;100228.75;5138163;27;20043;-71
2022/09/04 10:47:10;;;;;;;1.40;1.25;;;;;;;21.39;24.77;100234.09;5125391;27;20071;-71
2022/09/04 10:49:58;;;;;;;0.98;0.75;;;;;;;22.13;23.31;100234.81;5097105;27;20043;-70
2022/09/04 10:53:06;;;;;;;1.42;1.33;;;;;;;23.31;22.85;100230.75;5123577;27;20039;-71
2022/09/04 10:55:52;;;;;;;0.40;0.40;;;;;;;23.19;21.77;100221.25;5047922;28;20564;-71
2022/09/04 10:58:28;;;;;;;0.70;0.70;;;;;;;22.46;23.36;100220.81;5122286;27;20525;-71
2022/09/04 11:01:28;;;;;;;1.40;1.30;;;;;;;22.73;22.50;100234.50;5115647;27;20047;-71
2022/09/04 11:04:26;;;;;;;1.40;1.30;;;;;;;23.88;20.90;100223.28;5121873;27;20137;-71
2022/09/04 11:07:16;;;;;;;0.70;0.70;;;;;;;24.84;19.72;100216.25;5120451;27;20039;-72
2022/09/04 11:10:18;;;;;;;0.80;0.80;;;;;;;24.18;20.45;100208.94;5120750;27;20451;-72
2022/09/04 11:13:47;;;;;;;1.00;1.00;;;;;;;22.99;21.11;100211.84;5111278;27;20584;-71
2022/09/04 11:16:33;;;;;;;0.95;0.40;;;;;;;21.47;22.91;100206.53;5127485;27;20157;-71
2022/09/04 11:19:44;;;;;;;0.30;0.30;;;;;;;20.04;25.07;100201.94;5126254;27;20528;-71
2022/09/04 11:22:45;;;;;;;0.32;0.32;;;;;;;18.94;26.03;100211.13;5092311;27;20091;-71
2022/09/04 11:26:04;;;;;;;0.40;0.40;;;;;;;18.34;27.16;100207.78;5129193;27;20075;-71
2022/09/04 11:28:46;;;;;;;0.40;0.40;;;;;;;17.76;27.61;100210.31;5098362;27;20484;-71
2022/09/04 11:31:35;;;;;;;3.50;1.42;;;;;;;18.54;27.13;100206.44;5126245;27;20096;-71
2022/09/04 11:34:47;;;;;;;1.60;1.40;;;;;;;20.95;24.67;100214.06;5124492;27;20566;-71
2022/09/04 11:37:55;;;;;;;0.80;0.80;;;;;;;21.51;23.01;100207.47;5127776;27;20051;-71
2022/09/04 11:41:00;;;;;;;1.80;1.48;;;;;;;20.65;23.38;100205.69;5089419;28;20104;-71
2022/09/04 11:44:21;;;;;;;1.50;1.40;;;;;;;22.68;21.70;100213.25;5086222;28;20135;-71
2022/09/04 11:47:10;;;;;;;1.40;1.30;;;;;;;23.56;21.33;100200.03;5058051;28;20519;-71
2022/09/04 11:49:57;;;;;;;1.50;1.40;;;;;;;25.27;19.63;100200.44;5032985;28;20040;-71
2022/09/04 11:52:33;;;;;;;1.40;1.30;;;;;;;26.07;18.87;100190.06;5061572;28;20553;-71
2022/09/04 11:55:27;;;;;;;1.55;1.40;;;;;;;26.87;18.31;100192.28;5041602;28;20134;-71
2022/09/04 11:58:35;;;;;;;1.50;1.40;;;;;;;27.25;18.46;100187.63;5044566;28;20119;-71
2022/09/04 12:01:21;;;;;;;0.43;0.40;;;;;;;25.58;19.04;100190.31;5063296;28;20130;-72
2022/09/04 12:04:19;;;;;;;0.40;0.40;;;;;;;22.54;21.81;100194.06;5061827;28;20076;-71
2022/09/04 12:07:04;;;;;;;0.80;0.80;;;;;;;20.48;24.01;100193.50;5043190;28;20099;-71
2022/09/04 12:10:01;;;;;;;0.40;0.40;;;;;;;19.63;25.10;100197.72;5044940;28;20132;-73
2022/09/04 12:13:03;;;;;;;0.43;0.43;;;;;;;19.05;26.27;100201.41;5020826;28;20139;-71
2022/09/04 12:15:45;;;;;;;0.55;0.38;;;;;;;18.08;27.29;100198.22;5025939;28;20052;-71
2022/09/04 12:18:53;;;;;;;0.40;0.40;;;;;;;17.51;28.03;100191.25;5106334;27;20039;-71
2022/09/04 12:22:08;;;;;;;0.30;0.30;;;;;;;17.08;29.29;100186.97;5103829;27;20529;-71
2022/09/04 12:25:12;;;;;;;0.50;0.50;;;;;;;16.73;30.32;100189.31;5109352;27;20498;-71
2022/09/04 12:28:04;;;;;;;1.50;1.40;;;;;;;19.43;26.84;100191.66;5120754;27;20104;-71
2022/09/04 12:30:40;;;;;;;1.50;1.40;;;;;;;22.62;23.23;100181.19;5130118;27;20043;-72
2022/09/04 12:33:38;;;;;;;1.50;1.40;;;;;;;25.20;20.08;100186.31;5126067;27;20053;-72
2022/09/04 12:36:36;;;;;;;1.50;1.40;;;;;;;26.57;18.70;100178.97;5115832;27;20047;-72
2022/09/04 12:39:34;;;;;;;1.60;1.50;;;;;;;26.48;18.76;100171.63;5123394;27;20062;-70
2022/09/04 12:42:08;;;;;;;0.93;0.60;;;;;;;23.69;21.06;100182.06;5124450;27;20071;-72
2022/09/04 12:44:48;;;;;;;0.50;0.50;;;;;;;20.74;24.21;100170.34;5128865;27;20088;-72
2022/09/04 12:47:31;;;;;;;0.77;0.77;;;;;;;20.17;24.16;100188.19;5119091;27;20136;-72
2022/09/04 12:50:26;;;;;;;0.65;0.60;;;;;;;19.11;26.18;100189.03;5106113;28;20050;-78
2022/09/04 12:53:18;;;;;;;0.63;0.50;;;;;;;18.12;27.55;100181.78;5111653;27;20096;-79
2022/09/04 12:55:51;;;;;;;0.50;0.50;;;;;;;18.39;27.48;100180.78;5126184;27;20050;-79
2022/09/04 12:58:32;;;;;;;1.10;1.00;;;;;;;18.76;27.88;100185.31;5123044;27;20580;-78
2022/09/04 13:01:10;;;;;;;1.25;1.15;;;;;;;19.66;27.04;100185.97;5124685;27;20043;-79